Time;durP1;ratioP1;P1;durP2;ratioP2;P2;SDS_P1;SDS_P2;PMS_P1;PMS_P2;Temp;Humidity;BMP_temperature;BMP_pressure;BME280_temperature;BME280_humidity;BME280_pressure;Samples;Min_cycle;Max_cycle;Signal;HPM_P1;HPM_P2
2023/05/13 00:02:21;;;;;;;64.50;39.20;;;;;;;25.85;51.08;98195.63;5068300;28;20060;-64
2023/05/13 00:04:51;;;;;;;64.50;39.28;;;;;;;25.85;50.58;98199.16;5075848;28;20059;-65
2023/05/13 00:07:20;;;;;;;60.85;38.10;;;;;;;25.87;51.56;98207.00;5078552;28;20044;-63
2023/05/13 00:09:49;;;;;;;65.43;39.05;;;;;;;25.85;52.29;98204.56;5068509;28;20127;-63
2023/05/13 00:12:19;;;;;;;59.25;37.47;;;;;;;25.86;51.15;98197.25;5057636;28;20040;-65
2023/05/13 00:14:48;;;;;;;58.90;34.90;;;;;;;25.89;49.66;98204.78;5081144;28;20599;-65
2023/05/13 00:17:18;;;;;;;59.53;34.85;;;;;;;25.91;49.29;98202.56;5050119;28;20052;-64
2023/05/13 00:19:47;;;;;;;60.42;35.83;;;;;;;25.99;48.12;98214.59;5069202;28;20106;-65
2023/05/13 00:22:17;;;;;;;69.07;35.15;;;;;;;26.21;47.51;98236.41;5032173;28;20110;-66
2023/05/13 00:24:46;;;;;;;71.68;36.17;;;;;;;26.32;46.83;98300.25;5069227;28;20094;-66
2023/05/13 00:27:16;;;;;;;59.97;31.38;;;;;;;26.46;43.40;98338.25;5068863;28;20052;-64
2023/05/13 00:29:45;;;;;;;87.97;37.40;;;;;;;26.93;41.55;98370.38;5033424;28;20060;-64
2023/05/13 00:32:15;;;;;;;79.72;39.33;;;;;;;27.06;41.62;98361.34;5048225;28;20153;-64
2023/05/13 00:34:45;;;;;;;103.47;38.78;;;;;;;27.19;40.80;98367.84;5049532;28;20059;-64
2023/05/13 00:37:14;;;;;;;78.15;29.95;;;;;;;27.29;41.78;98358.66;5049626;28;20052;-65
2023/05/13 00:39:44;;;;;;;61.03;23.48;;;;;;;27.22;43.95;98350.91;5067682;28;20098;-64
2023/05/13 00:42:14;;;;;;;56.78;22.08;;;;;;;27.15;43.59;98335.03;5031854;28;20174;-64
2023/05/13 00:44:43;;;;;;;56.50;19.30;;;;;;;27.18;43.46;98356.16;5047444;28;20316;-66
2023/05/13 00:47:12;;;;;;;29.50;8.48;;;;;;;27.81;39.79;98355.13;5064908;28;20091;-63
2023/05/13 00:49:42;;;;;;;25.25;9.25;;;;;;;28.13;37.67;98408.50;5064558;28;20113;-65
2023/05/13 00:52:12;;;;;;;29.77;13.48;;;;;;;28.34;37.91;98382.28;5078022;28;20090;-65
2023/05/13 00:54:41;;;;;;;12.00;3.47;;;;;;;29.43;30.63;98336.69;5068879;28;20036;-66
2023/05/13 00:57:10;;;;;;;12.40;6.70;;;;;;;29.59;35.12;98201.28;5067881;28;20054;-64
2023/05/13 00:59:40;;;;;;;7.13;4.03;;;;;;;28.60;38.96;98098.91;5078686;28;20040;-64
2023/05/13 01:02:16;;;;;;;10.85;3.53;;;;;;;28.07;40.65;98003.97;5085649;28;20044;-63
2023/05/13 01:05:03;;;;;;;6.72;3.50;;;;;;;27.66;41.29;97985.47;5061276;28;20127;-65
2023/05/13 01:07:51;;;;;;;7.10;2.80;;;;;;;27.43;42.56;98000.31;5068719;28;20105;-64
2023/05/13 01:10:39;;;;;;;7.68;2.60;;;;;;;27.38;38.37;98012.16;5064689;28;20102;-64
2023/05/13 01:13:15;;;;;;;12.43;2.40;;;;;;;27.40;37.87;98015.34;5084664;28;20055;-63
2023/05/13 01:16:12;;;;;;;5.70;2.60;;;;;;;27.67;35.84;98019.72;5068993;28;20058;-64
2023/05/13 01:18:46;;;;;;;3.83;2.55;;;;;;;27.54;38.06;98043.25;5065890;28;20059;-63
2023/05/13 01:21:21;;;;;;;4.93;2.97;;;;;;;27.59;38.38;98051.25;5081870;28;20052;-63
2023/05/13 01:23:51;;;;;;;6.85;3.05;;;;;;;27.58;37.81;98060.53;5050668;28;20141;-65
2023/05/13 01:26:22;;;;;;;3.63;2.70;;;;;;;27.67;38.60;98064.06;5068044;28;20130;-63
2023/05/13 01:28:53;;;;;;;8.27;3.03;;;;;;;27.77;36.40;98062.13;5068641;28;20139;-65
2023/05/13 01:31:23;;;;;;;6.68;2.70;;;;;;;27.89;35.68;98068.53;5051029;28;20539;-65
2023/05/13 01:33:53;;;;;;;6.10;3.10;;;;;;;27.93;37.17;98079.59;5067932;28;20044;-66
2023/05/13 01:36:23;;;;;;;4.32;3.25;;;;;;;27.84;39.39;98103.31;5049369;28;20049;-64
2023/05/13 01:38:55;;;;;;;9.65;3.35;;;;;;;27.94;39.05;98120.09;5064543;28;20777;-65
2023/05/13 01:41:27;;;;;;;7.53;3.42;;;;;;;27.90;40.73;98140.13;5051271;28;20333;-64
2023/05/13 01:43:57;;;;;;;6.15;3.65;;;;;;;27.67;41.75;98147.59;5066430;28;20105;-64
2023/05/13 01:46:29;;;;;;;28.42;7.45;;;;;;;27.53;40.69;98155.91;5068429;28;20117;-62
2023/05/13 01:48:59;;;;;;;22.70;9.73;;;;;;;27.46;41.01;98149.28;5052801;28;20044;-63
2023/05/13 01:51:28;;;;;;;30.30;10.95;;;;;;;27.57;41.92;98150.66;5096119;28;20046;-63
2023/05/13 01:53:57;;;;;;;48.83;12.55;;;;;;;27.59;41.91;98156.56;5087716;28;20047;-63
2023/05/13 01:56:27;;;;;;;37.67;12.43;;;;;;;27.60;42.05;98158.16;5083513;28;20105;-64
2023/05/13 01:58:57;;;;;;;41.78;12.88;;;;;;;27.84;39.65;98155.03;5085719;28;20068;-64
2023/05/13 02:01:26;;;;;;;32.22;12.57;;;;;;;28.10;39.26;98148.47;5087131;28;20111;-63
2023/05/13 02:03:59;;;;;;;28.35;12.65;;;;;;;28.22;42.06;98145.13;5103867;28;20555;-62
2023/05/13 02:06:31;;;;;;;49.35;14.93;;;;;;;28.29;43.43;98159.06;5106118;28;20124;-65
2023/05/13 02:09:00;;;;;;;40.85;14.05;;;;;;;28.14;44.14;98178.63;5089889;28;20400;-62
2023/05/13 02:11:30;;;;;;;36.28;13.65;;;;;;;27.96;45.25;98180.50;5084538;28;20043;-62
2023/05/13 02:13:59;;;;;;;32.47;14.15;;;;;;;27.91;47.99;98188.81;5103062;28;20059;-63
2023/05/13 02:16:30;;;;;;;38.50;14.70;;;;;;;27.90;48.54;98181.75;5104695;28;20077;-61
2023/05/13 02:19:00;;;;;;;37.72;15.43;;;;;;;28.13;50.16;98183.25;5105611;28;20143;-61
2023/05/13 02:21:30;;;;;;;28.45;14.25;;;;;;;28.24;50.28;98185.66;5092672;28;20773;-62
2023/05/13 02:24:00;;;;;;;43.03;15.13;;;;;;;28.46;49.66;98188.22;5091326;28;20375;-61
2023/05/13 02:26:30;;;;;;;30.02;15.40;;;;;;;28.96;50.65;98202.94;5067241;28;20068;-61
2023/05/13 02:29:00;;;;;;;34.28;16.23;;;;;;;29.00;51.02;98189.44;5068201;28;20475;-61
2023/05/13 02:31:29;;;;;;;30.70;15.70;;;;;;;29.28;51.98;98193.38;5086245;28;20055;-61
2023/05/13 02:33:59;;;;;;;29.40;16.17;;;;;;;29.78;51.40;98192.69;5088554;28;20104;-61
2023/05/13 02:36:29;;;;;;;37.55;15.98;;;;;;;30.28;51.68;98190.75;5087731;28;20052;-60
2023/05/13 02:38:59;;;;;;;34.17;16.58;;;;;;;30.62;51.83;98186.97;5088049;28;20067;-60
2023/05/13 02:41:29;;;;;;;36.72;16.58;;;;;;;30.90;48.60;98192.63;5094711;28;20040;-61
2023/05/13 02:43:59;;;;;;;42.30;17.00;;;;;;;31.16;49.37;98189.63;5096999;28;20048;-64
2023/05/13 02:46:28;;;;;;;52.92;17.10;;;;;;;31.35;48.23;98197.28;5070936;28;20138;-66
2023/05/13 02:48:58;;;;;;;33.58;16.40;;;;;;;31.47;50.17;98205.50;5103307;28;20498;-62
2023/05/13 02:51:30;;;;;;;28.75;16.05;;;;;;;31.52;50.86;98200.63;5098884;28;20063;-62
2023/05/13 02:54:00;;;;;;;31.27;17.33;;;;;;;31.60;51.29;98207.16;5087876;28;20079;-62
2023/05/13 02:56:30;;;;;;;39.90;17.25;;;;;;;31.68;50.62;98199.97;5087360;28;20054;-62
2023/05/13 02:59:00;;;;;;;34.25;16.23;;;;;;;31.79;50.25;98206.56;5105464;28;20487;-63
2023/05/13 03:01:29;;;;;;;36.00;17.45;;;;;;;31.83;49.38;98211.03;5102539;28;20047;-62
2023/05/13 03:03:59;;;;;;;29.83;16.80;;;;;;;31.87;50.06;98208.38;5088968;28;20048;-63
2023/05/13 03:06:28;;;;;;;33.63;18.17;;;;;;;31.91;48.77;98212.06;5086179;28;20509;-61
2023/05/13 03:08:58;;;;;;;32.40;17.70;;;;;;;31.94;47.63;98214.91;5104671;28;20104;-62
2023/05/13 03:11:27;;;;;;;39.65;17.67;;;;;;;32.03;46.65;98217.53;5091217;28;20212;-62
2023/05/13 03:13:58;;;;;;;36.17;18.30;;;;;;;31.99;45.35;98222.91;5090802;28;20474;-62
2023/05/13 03:16:27;;;;;;;35.45;18.02;;;;;;;32.02;42.86;98224.13;5108117;28;20047;-62
2023/05/13 03:18:57;;;;;;;33.10;17.50;;;;;;;31.99;42.06;98213.88;5110181;27;20108;-61
2023/05/13 03:21:26;;;;;;;30.73;15.68;;;;;;;31.93;39.99;98221.53;5108617;28;20047;-62
2023/05/13 03:23:56;;;;;;;31.95;14.70;;;;;;;31.95;38.52;98219.25;5103946;28;20048;-63
2023/05/13 03:26:25;;;;;;;25.58;13.65;;;;;;;31.63;36.03;98218.22;5108608;28;20044;-64
2023/05/13 03:28:55;;;;;;;35.40;13.80;;;;;;;31.76;35.74;98235.47;5108269;28;20055;-62
2023/05/13 03:31:25;;;;;;;29.77;13.25;;;;;;;31.73;35.89;98230.69;5095811;28;20044;-61
2023/05/13 03:33:56;;;;;;;29.25;14.05;;;;;;;31.90;35.82;98235.91;5102545;28;20052;-61
2023/05/13 03:36:25;;;;;;;26.52;15.68;;;;;;;31.96;35.95;98236.47;5108490;28;20876;-64
2023/05/13 03:38:55;;;;;;;29.35;15.27;;;;;;;31.82;33.55;98236.81;5107948;28;20055;-62
2023/05/13 03:41:24;;;;;;;28.02;16.08;;;;;;;31.94;35.77;98231.34;5091139;28;20067;-62
2023/05/13 03:43:56;;;;;;;33.65;16.88;;;;;;;31.94;37.55;98231.34;5092737;28;20070;-62
2023/05/13 03:46:28;;;;;;;29.20;15.63;;;;;;;31.56;35.46;98230.88;5089335;28;20051;-62
2023/05/13 03:48:58;;;;;;;30.63;16.25;;;;;;;31.49;34.36;98231.41;5091668;28;20807;-62
2023/05/13 03:51:28;;;;;;;32.58;15.85;;;;;;;31.63;34.51;98226.44;5095455;28;20039;-63
2023/05/13 03:53:58;;;;;;;32.15;15.50;;;;;;;31.96;34.58;98234.53;5097117;28;20506;-62
2023/05/13 03:56:27;;;;;;;24.70;12.10;;;;;;;31.97;35.35;98238.06;5109292;27;20138;-62
2023/05/13 03:58:56;;;;;;;22.75;10.05;;;;;;;31.94;33.49;98230.53;5107957;28;20421;-63
2023/05/13 04:01:26;;;;;;;15.57;6.70;;;;;;;32.13;31.95;98235.47;5096338;28;20051;-64
2023/05/13 04:03:56;;;;;;;15.05;5.38;;;;;;;32.06;30.90;98238.75;5097997;28;20073;-61
2023/05/13 04:06:28;;;;;;;10.82;4.68;;;;;;;31.84;31.38;98247.44;5075249;28;20089;-61
2023/05/13 04:09:00;;;;;;;13.55;6.07;;;;;;;32.06;32.93;98245.03;5108842;28;20047;-60
2023/05/13 04:11:32;;;;;;;15.55;5.93;;;;;;;32.20;31.89;98246.63;5100097;27;20051;-63
2023/05/13 04:14:01;;;;;;;15.00;6.25;;;;;;;32.00;32.67;98246.38;5073573;28;20044;-63
2023/05/13 04:16:30;;;;;;;16.75;6.80;;;;;;;31.96;33.83;98250.16;5070176;28;20151;-61
2023/05/13 04:19:00;;;;;;;19.65;7.97;;;;;;;32.28;35.22;98251.19;5070661;28;20152;-61
2023/05/13 04:21:30;;;;;;;19.45;8.40;;;;;;;32.46;34.87;98256.06;5087875;28;20044;-63
2023/05/13 04:23:59;;;;;;;23.17;9.18;;;;;;;32.48;34.41;98245.56;5096410;28;20142;-63
2023/05/13 04:26:29;;;;;;;21.13;10.32;;;;;;;32.55;33.49;98247.69;5107442;28;20440;-62
2023/05/13 04:28:58;;;;;;;18.48;10.80;;;;;;;32.50;32.79;98247.94;5090406;28;20124;-61
2023/05/13 04:31:28;;;;;;;28.33;11.70;;;;;;;32.89;32.85;98247.13;5076095;28;20048;-61
2023/05/13 04:33:57;;;;;;;26.52;14.13;;;;;;;33.04;33.04;98251.06;5085288;28;20060;-61
2023/05/13 04:36:26;;;;;;;29.90;13.18;;;;;;;33.28;35.85;98244.69;5086528;28;20868;-63
2023/05/13 04:38:56;;;;;;;29.23;14.75;;;;;;;33.32;34.52;98249.13;5084093;28;20058;-62
2023/05/13 04:41:25;;;;;;;27.08;12.50;;;;;;;33.06;33.66;98247.97;5085452;28;20051;-63
2023/05/13 04:43:55;;;;;;;29.75;11.88;;;;;;;33.21;32.05;98244.47;5088796;28;20130;-62
2023/05/13 04:46:24;;;;;;;28.85;10.68;;;;;;;32.95;31.83;98250.44;5065251;28;20060;-61
2023/05/13 04:48:54;;;;;;;22.92;8.32;;;;;;;33.15;30.27;98248.66;5049182;28;20060;-61
2023/05/13 04:51:25;;;;;;;18.83;7.93;;;;;;;33.04;29.60;98247.53;5085764;28;20051;-62
2023/05/13 04:53:55;;;;;;;21.17;8.15;;;;;;;33.07;29.70;98246.81;5090334;28;20044;-61
2023/05/13 04:56:25;;;;;;;24.23;9.85;;;;;;;33.43;29.51;98246.63;5081553;28;20466;-63
2023/05/13 04:58:55;;;;;;;23.17;9.57;;;;;;;33.67;30.36;98238.25;5073863;28;20127;-63
2023/05/13 05:01:25;;;;;;;19.95;10.65;;;;;;;33.46;31.50;98248.66;5086046;28;20468;-63
2023/05/13 05:03:55;;;;;;;22.80;9.35;;;;;;;33.18;30.83;98245.19;5088902;28;20093;-61
2023/05/13 05:06:24;;;;;;;18.33;9.00;;;;;;;33.19;30.42;98242.09;5089048;28;20494;-62
2023/05/13 05:08:55;;;;;;;18.67;8.80;;;;;;;33.34;30.47;98249.56;5089601;28;20130;-62
2023/05/13 05:11:24;;;;;;;30.13;9.32;;;;;;;33.28;31.12;98247.44;5087717;28;20078;-61
2023/05/13 05:13:54;;;;;;;19.05;7.53;;;;;;;32.98;30.76;98258.75;5087201;28;20051;-61
2023/05/13 05:16:23;;;;;;;17.60;6.72;;;;;;;32.85;30.31;98251.72;5107202;28;20631;-63
2023/05/13 05:18:53;;;;;;;18.40;7.50;;;;;;;32.63;30.06;98255.00;5090105;28;20051;-64
2023/05/13 05:21:23;;;;;;;15.48;5.75;;;;;;;32.90;29.31;98256.16;5085545;28;20052;-63
2023/05/13 05:23:52;;;;;;;10.60;5.20;;;;;;;33.00;28.94;98257.59;5085590;28;20055;-63
2023/05/13 05:26:23;;;;;;;14.45;5.72;;;;;;;32.95;30.49;98258.66;5105747;28;20043;-61
2023/05/13 05:28:52;;;;;;;16.08;5.72;;;;;;;33.12;29.16;98261.09;5089701;28;20044;-62
2023/05/13 05:31:22;;;;;;;10.70;5.35;;;;;;;32.74;30.58;98258.06;5088436;28;20463;-62
2023/05/13 05:33:51;;;;;;;19.77;6.57;;;;;;;32.79;30.17;98258.63;5088455;28;20043;-62
2023/05/13 05:36:21;;;;;;;13.02;5.70;;;;;;;32.98;28.70;98256.00;5085216;28;20048;-60
2023/05/13 05:38:50;;;;;;;18.05;6.07;;;;;;;33.04;29.30;98256.56;5089289;28;20635;-65
2023/05/13 05:41:22;;;;;;;15.50;6.55;;;;;;;33.06;30.46;98270.72;5085024;28;20048;-61
2023/05/13 05:43:51;;;;;;;17.75;6.15;;;;;;;33.30;29.06;98258.84;5088693;28;20053;-62
2023/05/13 05:46:21;;;;;;;18.23;6.20;;;;;;;33.34;30.38;98254.25;5106397;28;20435;-63
2023/05/13 05:48:51;;;;;;;14.05;4.88;;;;;;;33.39;32.56;98256.72;5088728;28;20047;-62
2023/05/13 05:51:21;;;;;;;12.65;5.10;;;;;;;33.49;31.14;98256.22;5088005;28;20059;-61
2023/05/13 05:53:51;;;;;;;16.15;5.53;;;;;;;33.51;30.04;98256.63;5073661;28;20589;-61
2023/05/13 05:56:20;;;;;;;16.50;4.65;;;;;;;33.58;30.55;98256.84;5103766;28;20043;-59
2023/05/13 05:58:49;;;;;;;15.57;4.85;;;;;;;33.68;29.34;98253.56;5087739;28;20052;-62
2023/05/13 06:01:19;;;;;;;17.33;4.90;;;;;;;33.55;29.90;98248.50;5097319;28;20061;-62
2023/05/13 06:03:48;;;;;;;15.35;5.18;;;;;;;33.78;30.74;98244.78;5088596;28;20142;-62
2023/05/13 06:06:22;;;;;;;9.43;4.95;;;;;;;33.74;31.18;98248.59;5084610;28;20040;-60
2023/05/13 06:08:51;;;;;;;16.45;5.20;;;;;;;33.74;29.63;98237.63;5085343;28;20062;-63
2023/05/13 06:11:20;;;;;;;16.73;5.63;;;;;;;33.65;29.51;98229.53;5080269;28;20050;-61
2023/05/13 06:13:50;;;;;;;15.98;5.57;;;;;;;33.73;30.21;98236.81;5085113;28;20375;-60
2023/05/13 06:16:21;;;;;;;12.05;6.07;;;;;;;33.75;30.16;98242.75;5104400;28;20070;-63
2023/05/13 06:18:50;;;;;;;18.83;5.28;;;;;;;33.66;29.71;98224.88;5104839;28;20067;-62
2023/05/13 06:21:20;;;;;;;14.07;5.68;;;;;;;33.62;29.37;98223.97;5087451;28;20484;-62
2023/05/13 06:23:50;;;;;;;16.92;5.75;;;;;;;33.77;29.33;98223.16;5085365;28;20044;-61
2023/05/13 06:26:21;;;;;;;10.98;5.90;;;;;;;33.91;30.85;98225.44;5087824;28;20126;-61
2023/05/13 06:28:50;;;;;;;11.75;5.90;;;;;;;33.95;29.18;98218.88;5071376;28;20048;-63
2023/05/13 06:31:19;;;;;;;15.15;5.40;;;;;;;33.93;29.09;98225.91;5094214;28;20055;-62
2023/05/13 06:33:49;;;;;;;11.57;4.80;;;;;;;34.06;29.76;98210.88;5080950;28;20064;-61
2023/05/13 06:36:19;;;;;;;11.32;4.00;;;;;;;34.10;29.50;98215.31;5095514;28;20546;-62
2023/05/13 06:38:48;;;;;;;12.82;4.43;;;;;;;34.49;23.65;98207.13;5108691;27;20035;-62
2023/05/13 06:41:18;;;;;;;8.48;4.30;;;;;;;34.40;26.48;98201.84;5096174;28;20039;-60
2023/05/13 06:43:47;;;;;;;11.60;4.38;;;;;;;34.27;25.52;98203.13;5087450;28;20061;-63
2023/05/13 06:46:21;;;;;;;11.02;4.25;;;;;;;34.40;30.95;98201.84;5087584;28;20056;-62
2023/05/13 06:48:52;;;;;;;10.98;4.80;;;;;;;34.42;28.88;98194.03;5087385;28;20104;-63
2023/05/13 06:51:21;;;;;;;13.40;6.05;;;;;;;34.42;29.20;98194.03;5086291;28;20067;-63
2023/05/13 06:53:51;;;;;;;14.88;5.32;;;;;;;34.36;29.43;98195.47;5104435;28;20075;-62
2023/05/13 06:56:24;;;;;;;9.68;4.93;;;;;;;34.40;29.30;98190.84;5083138;28;20052;-62
2023/05/13 06:58:54;;;;;;;9.80;5.20;;;;;;;34.42;28.15;98193.22;5085435;28;20059;-62
2023/05/13 07:01:23;;;;;;;11.77;6.20;;;;;;;34.47;27.08;98180.00;5095436;28;20096;-62
2023/05/13 07:03:54;;;;;;;15.63;7.07;;;;;;;34.47;26.38;98180.00;5104273;28;20056;-61
2023/05/13 07:06:23;;;;;;;9.60;5.82;;;;;;;34.60;25.83;98181.44;5086660;28;20044;-63
2023/05/13 07:08:52;;;;;;;9.73;5.95;;;;;;;34.36;26.28;98165.22;5104731;28;20132;-62
2023/05/13 07:11:22;;;;;;;13.93;5.88;;;;;;;34.48;25.97;98170.56;5103689;28;20105;-62
2023/05/13 07:13:51;;;;;;;13.80;7.07;;;;;;;34.41;27.82;98161.38;5103543;28;20383;-61
2023/05/13 07:16:21;;;;;;;13.30;7.28;;;;;;;34.29;27.82;98151.34;5103443;28;20345;-62
2023/05/13 07:18:50;;;;;;;17.70;7.10;;;;;;;34.36;26.46;98156.16;5104680;28;20485;-61
2023/05/13 07:21:20;;;;;;;11.88;5.55;;;;;;;34.32;26.43;98156.09;5064401;28;20048;-62
2023/05/13 07:23:50;;;;;;;13.98;5.95;;;;;;;34.29;25.07;98151.34;5102562;28;20082;-61
2023/05/13 07:26:20;;;;;;;10.52;6.10;;;;;;;34.36;27.18;98151.47;5088823;28;20134;-61
2023/05/13 07:28:50;;;;;;;12.18;5.70;;;;;;;34.34;28.48;98144.75;5094179;28;20080;-60
2023/05/13 07:31:20;;;;;;;13.18;5.88;;;;;;;34.23;28.00;98150.81;5093436;28;20047;-63
2023/05/13 07:33:49;;;;;;;9.32;5.30;;;;;;;34.27;26.01;98148.13;5104877;28;20052;-61
2023/05/13 07:36:19;;;;;;;10.48;5.32;;;;;;;34.20;29.06;98145.25;5104971;28;20059;-60
2023/05/13 07:38:49;;;;;;;8.70;4.88;;;;;;;34.16;26.79;98139.69;5104561;28;20075;-60
2023/05/13 07:41:19;;;;;;;11.05;4.55;;;;;;;33.92;27.94;98144.59;5103920;28;20112;-60
2023/05/13 07:43:48;;;;;;;11.15;5.65;;;;;;;33.82;27.66;98138.50;5105011;28;20120;-66
2023/05/13 07:46:17;;;;;;;13.90;5.45;;;;;;;33.99;28.46;98126.31;5104994;28;20126;-66
2023/05/13 07:48:47;;;;;;;14.00;5.75;;;;;;;34.07;28.21;98130.03;5104535;28;20051;-67
2023/05/13 07:51:17;;;;;;;17.98;6.35;;;;;;;34.08;28.19;98117.88;5102143;28;20043;-66
2023/05/13 07:53:46;;;;;;;10.77;5.38;;;;;;;34.10;30.24;98113.59;5104514;28;20857;-64
2023/05/13 07:56:16;;;;;;;9.15;5.63;;;;;;;33.95;28.66;98121.88;5103721;28;20127;-60
2023/05/13 07:58:45;;;;;;;11.50;5.80;;;;;;;33.81;28.35;98114.16;5104216;28;20048;-64
2023/05/13 08:01:15;;;;;;;14.73;6.65;;;;;;;33.90;27.40;98112.00;5107711;28;20495;-63
2023/05/13 08:03:44;;;;;;;11.02;5.82;;;;;;;33.94;27.85;98112.06;5108314;28;20051;-60
2023/05/13 08:06:15;;;;;;;14.25;5.32;;;;;;;33.82;27.52;98102.78;5106486;28;20079;-62
2023/05/13 08:08:44;;;;;;;12.90;5.45;;;;;;;33.84;28.62;98108.72;5108794;28;20131;-61
2023/05/13 08:11:13;;;;;;;9.27;5.65;;;;;;;33.84;29.42;98103.25;5108111;28;20043;-61
2023/05/13 08:13:44;;;;;;;10.88;5.90;;;;;;;33.79;29.96;98099.97;5108207;28;20472;-61
2023/05/13 08:16:13;;;;;;;12.60;5.43;;;;;;;33.66;30.53;98091.06;5107072;28;20816;-70
2023/05/13 08:18:43;;;;;;;13.80;6.72;;;;;;;33.67;31.66;98095.41;5106258;28;20062;-59
2023/05/13 08:21:12;;;;;;;11.57;5.18;;;;;;;33.90;31.09;98083.72;5088885;28;20048;-64
2023/05/13 08:23:41;;;;;;;12.95;6.13;;;;;;;33.99;30.69;98087.81;5090480;28;20047;-64
2023/05/13 08:26:13;;;;;;;14.25;5.88;;;;;;;33.99;30.60;98092.56;4736331;28;10000446;-66
2023/05/13 08:28:48;;;;;;;16.50;7.35;;;;;;;34.04;28.67;98084.78;5105163;28;20047;-63
2023/05/13 08:31:23;;;;;;;15.82;6.72;;;;;;;34.03;28.38;98083.22;5104771;28;20051;-62
2023/05/13 08:33:53;;;;;;;18.08;7.07;;;;;;;33.81;28.87;98070.97;5103985;28;20043;-65
2023/05/13 08:36:24;;;;;;;16.15;7.07;;;;;;;33.65;28.53;98066.66;5104222;28;20470;-62
2023/05/13 08:38:54;;;;;;;10.38;6.38;;;;;;;33.78;29.14;98068.16;5104138;28;20048;-65
2023/05/13 08:41:23;;;;;;;15.80;6.45;;;;;;;33.63;28.36;98061.53;5104579;28;20738;-62
2023/05/13 08:43:56;;;;;;;14.57;7.30;;;;;;;33.82;25.43;98058.81;5082440;28;20075;-64
2023/05/13 08:46:33;;;;;;;12.18;6.95;;;;;;;33.99;27.88;98060.34;5084008;28;20113;-63
2023/05/13 08:49:04;;;;;;;15.00;6.85;;;;;;;34.03;28.21;98052.19;5094863;28;20522;-63
2023/05/13 08:51:34;;;;;;;16.05;7.75;;;;;;;34.03;29.31;98057.69;5101756;28;20723;-66
2023/05/13 08:54:08;;;;;;;14.60;7.60;;;;;;;33.94;29.38;98048.88;5102200;28;20094;-62
2023/05/13 08:56:37;;;;;;;16.73;6.53;;;;;;;33.93;28.63;98047.28;5102974;28;20051;-70
2023/05/13 08:59:07;;;;;;;9.27;6.78;;;;;;;33.81;27.55;98039.97;5101575;28;20052;-66
2023/05/13 09:01:37;;;;;;;13.57;7.47;;;;;;;33.77;29.54;98039.88;5093145;28;20043;-69
2023/05/13 09:04:09;;;;;;;12.00;7.18;;;;;;;33.75;27.78;98031.22;5101619;28;20039;-67
2023/05/13 09:06:39;;;;;;;13.30;7.93;;;;;;;33.71;28.73;98024.84;5103089;28;20554;-65
2023/05/13 09:09:09;;;;;;;24.55;8.40;;;;;;;33.67;29.41;98032.22;5099546;28;20043;-67
2023/05/13 09:11:39;;;;;;;17.50;8.88;;;;;;;33.52;29.48;98022.06;5066908;28;20574;-64
2023/05/13 09:14:12;;;;;;;20.42;9.00;;;;;;;33.40;28.48;98019.44;5084917;28;20048;-66
2023/05/13 09:16:42;;;;;;;15.73;8.88;;;;;;;33.47;28.05;98018.78;5086915;28;20079;-67
2023/05/13 09:19:12;;;;;;;22.05;9.27;;;;;;;33.54;28.65;98016.22;5084192;28;20130;-68
2023/05/13 09:21:43;;;;;;;12.35;8.93;;;;;;;33.54;28.61;98010.72;5104673;28;20044;-65
2023/05/13 09:24:18;;;;;;;13.82;8.05;;;;;;;33.54;29.66;98008.75;5084882;28;20040;-65
2023/05/13 09:26:50;;;;;;;11.88;7.95;;;;;;;33.39;30.33;97993.94;5078549;28;20634;-67
2023/05/13 09:29:28;;;;;;;20.15;9.50;;;;;;;33.32;29.87;97996.53;5098679;28;20039;-64
2023/05/13 09:32:00;;;;;;;17.60;8.57;;;;;;;33.39;29.01;97988.44;5102431;28;20044;-64
2023/05/13 09:34:34;;;;;;;17.67;8.55;;;;;;;33.41;28.67;97985.34;5087765;28;20059;-64
2023/05/13 09:37:06;;;;;;;14.93;8.57;;;;;;;33.46;29.22;97984.25;5098503;28;20074;-67
2023/05/13 09:39:41;;;;;;;15.20;8.10;;;;;;;33.32;28.95;97982.00;5075155;28;20063;-65
2023/05/13 09:42:18;;;;;;;12.60;7.78;;;;;;;33.18;27.58;97978.94;5102250;28;20062;-66
2023/05/13 09:44:48;;;;;;;15.63;8.30;;;;;;;33.32;28.81;97976.50;5102303;28;20155;-67
2023/05/13 09:47:18;;;;;;;15.70;8.07;;;;;;;33.43;28.09;97977.53;5099720;28;20157;-64
2023/05/13 09:49:56;;;;;;;15.15;8.40;;;;;;;33.35;29.33;97975.78;5101462;28;20051;-65
2023/05/13 09:52:28;;;;;;;15.07;7.93;;;;;;;33.41;27.98;97974.34;5112453;27;20044;-67
2023/05/13 09:54:59;;;;;;;17.33;7.93;;;;;;;33.46;28.63;97968.56;5110121;27;20047;-67
2023/05/13 09:57:29;;;;;;;14.75;8.20;;;;;;;33.35;28.96;97965.59;5078803;28;20048;-67
2023/05/13 10:00:05;;;;;;;15.50;8.10;;;;;;;33.35;29.08;97965.59;5108150;27;20292;-67
2023/05/13 10:02:46;;;;;;;13.30;8.13;;;;;;;33.35;30.35;97954.63;5071022;28;20490;-64
2023/05/13 10:05:16;;;;;;;14.15;7.75;;;;;;;33.38;31.25;97959.38;5096999;28;20057;-65
2023/05/13 10:07:46;;;;;;;13.30;7.82;;;;;;;33.37;30.99;97957.00;5099278;28;20043;-64
2023/05/13 10:10:16;;;;;;;14.25;7.95;;;;;;;33.36;31.07;97949.94;5094140;28;20039;-65
2023/05/13 10:12:46;;;;;;;13.07;7.57;;;;;;;33.36;28.71;97947.19;5110325;27;20181;-65
2023/05/13 10:15:17;;;;;;;10.07;7.60;;;;;;;33.35;28.37;97940.09;5108655;27;20076;-65
2023/05/13 10:17:48;;;;;;;11.07;8.05;;;;;;;33.43;28.80;97933.59;5059512;28;20045;-67
2023/05/13 10:20:18;;;;;;;15.82;8.43;;;;;;;33.49;27.98;97932.16;5101522;27;20943;-65
2023/05/13 10:22:50;;;;;;;16.00;7.82;;;;;;;33.62;27.71;97936.34;5093888;28;20150;-62
2023/05/13 10:25:21;;;;;;;15.45;8.25;;;;;;;33.70;27.76;97927.09;5081461;28;20050;-65
2023/05/13 10:27:55;;;;;;;17.25;8.43;;;;;;;33.69;28.58;97914.53;5102848;28;20093;-61
2023/05/13 10:30:26;;;;;;;15.38;8.00;;;;;;;33.60;29.50;97918.63;5103081;28;20050;-62
2023/05/13 10:32:56;;;;;;;20.80;7.85;;;;;;;33.52;29.29;97914.16;5104710;28;20071;-60
2023/05/13 10:35:32;;;;;;;15.00;8.52;;;;;;;33.56;28.94;97909.50;5104591;28;20137;-61
2023/05/13 10:38:37;;;;;;;16.20;8.63;;;;;;;33.58;28.35;97898.97;5102361;28;20047;-60
2023/05/13 10:41:29;;;;;;;15.38;7.40;;;;;;;33.52;29.50;97898.47;5104258;28;20053;-59
2023/05/13 10:43:59;;;;;;;14.73;7.68;;;;;;;33.41;29.58;97897.47;5105108;28;20751;-65
2023/05/13 10:46:33;;;;;;;13.43;7.45;;;;;;;33.18;29.27;97891.91;5104171;28;20071;-64
2023/05/13 10:49:03;;;;;;;17.48;9.07;;;;;;;33.14;28.27;97890.22;5102107;28;20101;-62
2023/05/13 10:51:55;;;;;;;11.95;7.82;;;;;;;33.09;29.68;97885.00;5061323;28;20051;-61
2023/05/13 10:54:35;;;;;;;14.98;8.13;;;;;;;33.16;27.58;97882.41;5084805;28;20087;-63
2023/05/13 10:57:06;;;;;;;19.15;8.10;;;;;;;33.21;27.85;97882.13;5102466;28;20070;-64
2023/05/13 10:59:37;;;;;;;13.38;7.97;;;;;;;33.21;29.75;97876.66;5101039;28;20467;-60
2023/05/13 11:02:24;;;;;;;14.32;7.90;;;;;;;33.24;29.65;97875.91;5103637;28;20040;-62
2023/05/13 11:05:07;;;;;;;17.02;7.90;;;;;;;33.23;29.46;97875.16;4726040;28;10000602;-62
2023/05/13 11:07:38;;;;;;;15.40;8.02;;;;;;;33.21;28.64;97869.22;5103948;28;20540;-65
2023/05/13 11:10:29;;;;;;;15.25;8.40;;;;;;;33.23;28.33;97868.88;5092653;28;20044;-64
2023/05/13 11:13:14;;;;;;;18.65;7.97;;;;;;;33.21;28.54;97871.97;5079960;28;20130;-63
2023/05/13 11:15:47;;;;;;;13.32;8.18;;;;;;;33.19;28.29;97859.75;5105572;28;20371;-66
2023/05/13 11:18:19;;;;;;;15.43;8.07;;;;;;;33.15;29.74;97862.41;5105429;28;20035;-64
2023/05/13 11:20:53;;;;;;;17.52;8.25;;;;;;;33.09;29.35;97858.34;5105598;28;20056;-63
2023/05/13 11:23:22;;;;;;;16.50;8.68;;;;;;;33.11;29.54;97860.72;5104035;28;20104;-62
2023/05/13 11:26:13;;;;;;;16.15;8.55;;;;;;;33.05;29.02;97862.19;5102309;28;20479;-68
2023/05/13 11:28:59;;;;;;;14.45;8.18;;;;;;;33.05;30.54;97860.22;5096599;28;20048;-64
2023/05/13 11:31:43;;;;;;;20.30;9.25;;;;;;;32.97;30.72;97856.53;5082810;28;20052;-65
2023/05/13 11:34:18;;;;;;;19.00;9.02;;;;;;;32.92;29.84;97854.09;5097319;28;20063;-63
2023/05/13 11:36:57;;;;;;;13.40;8.48;;;;;;;32.89;30.67;97851.25;5092996;28;20047;-62
2023/05/13 11:39:27;;;;;;;16.15;8.23;;;;;;;32.85;30.71;97853.13;5107636;28;20578;-61
2023/05/13 11:42:00;;;;;;;14.77;8.73;;;;;;;32.86;30.33;97847.28;5105895;28;20047;-62
2023/05/13 11:44:30;;;;;;;12.75;8.40;;;;;;;32.85;29.81;97850.38;5091068;28;20051;-61